Time;durP1;ratioP1;P1;durP2;ratioP2;P2;SDS_P1;SDS_P2;PMS_P1;PMS_P2;Temp;Humidity;BMP_temperature;BMP_pressure;BME280_temperature;BME280_humidity;BME280_pressure;Samples;Min_cycle;Max_cycle;Signal;HPM_P1;HPM_P2
2022/09/15 00:00:33;;;;;;;9.63;1.65;;;;;;;;;;6288244;22;20019;-82
2022/09/15 00:02:59;;;;;;;8.32;1.58;;;;;;;;;;6299191;22;20355;-82
2022/09/15 00:05:26;;;;;;;11.23;1.35;;;;;;;;;;6276555;22;20051;-84
2022/09/15 00:08:07;;;;;;;11.52;1.35;;;;;;;;;;6275398;22;20019;-84
2022/09/15 00:10:34;;;;;;;7.57;1.33;;;;;;;;;;6300730;22;20117;-86
2022/09/15 00:13:03;;;;;;;5.00;1.33;;;;;;;;;;6275803;22;20015;-81
2022/09/15 00:15:29;;;;;;;7.47;2.60;;;;;;;;;;6301628;22;20056;-85
2022/09/15 00:17:55;;;;;;;9.00;1.73;;;;;;;;;;6276296;22;20015;-84
2022/09/15 00:20:30;;;;;;;5.88;1.17;;;;;;;;;;6301828;22;20026;-87
2022/09/15 00:22:56;;;;;;;9.52;2.28;;;;;;;;;;6303163;22;20020;-84
2022/09/15 00:25:22;;;;;;;6.70;1.02;;;;;;;;;;6310758;22;20023;-88
2022/09/15 00:28:07;;;;;;;3.40;0.95;;;;;;;;;;6307455;22;20064;-84
2022/09/15 00:30:38;;;;;;;5.32;0.90;;;;;;;;;;6300962;22;20019;-82
2022/09/15 00:33:04;;;;;;;9.90;1.52;;;;;;;;;;6305103;22;20470;-83
2022/09/15 00:35:35;;;;;;;8.95;1.30;;;;;;;;;;6277428;22;20352;-82
2022/09/15 00:38:01;;;;;;;7.78;0.73;;;;;;;;;;6306223;22;20695;-85
2022/09/15 00:40:27;;;;;;;8.43;1.55;;;;;;;;;;6278891;22;20019;-82
2022/09/15 00:42:53;;;;;;;5.00;1.15;;;;;;;;;;6310645;22;20145;-85
2022/09/15 00:45:19;;;;;;;9.23;2.15;;;;;;;;;;6282615;22;20012;-87
2022/09/15 00:47:46;;;;;;;8.00;1.13;;;;;;;;;;6314426;22;20019;-84
2022/09/15 00:50:14;;;;;;;9.95;1.33;;;;;;;;;;6311993;22;20015;-89
2022/09/15 00:52:53;;;;;;;7.72;1.02;;;;;;;;;;6312313;22;20566;-81
2022/09/15 00:58:58;;;;;;;8.18;1.08;;;;;;;;;;6109863;23;20467;-82
2022/09/15 01:01:30;;;;;;;7.67;1.27;;;;;;;;;;6186875;22;20043;-82
2022/09/15 01:03:57;;;;;;;9.82;1.83;;;;;;;;;;6301172;22;20016;-82
2022/09/15 01:06:32;;;;;;;9.32;1.27;;;;;;;;;;6301353;22;20028;-82
2022/09/15 01:09:18;;;;;;;9.80;1.50;;;;;;;;;;6271624;22;20084;-83
2022/09/15 01:11:44;;;;;;;7.78;1.20;;;;;;;;;;6301537;22;20061;-84
2022/09/15 01:14:10;;;;;;;13.10;2.38;;;;;;;;;;6298258;22;20016;-81
2022/09/15 01:17:06;;;;;;;10.75;1.70;;;;;;;;;;6301414;22;20466;-83
2022/09/15 01:19:36;;;;;;;13.60;1.88;;;;;;;;;;6301127;22;20050;-84
2022/09/15 01:22:08;;;;;;;21.15;2.03;;;;;;;;;;6300634;22;20106;-82
2022/09/15 01:24:47;;;;;;;15.60;1.80;;;;;;;;;;6304803;22;20015;-85
2022/09/15 01:27:29;;;;;;;10.63;2.25;;;;;;;;;;6274088;22;20034;-82
2022/09/15 01:30:19;;;;;;;12.73;1.63;;;;;;;;;;6301322;22;20023;-82
2022/09/15 01:33:03;;;;;;;6.63;1.10;;;;;;;;;;6299634;22;20020;-84
2022/09/15 01:35:44;;;;;;;10.82;1.50;;;;;;;;;;6303629;22;20030;-82
2022/09/15 01:38:10;;;;;;;10.77;1.50;;;;;;;;;;6300793;22;20455;-81
2022/09/15 01:41:08;;;;;;;8.38;1.23;;;;;;;;;;6303910;22;20022;-82
2022/09/15 01:43:50;;;;;;;16.65;2.25;;;;;;;;;;6250040;22;20015;-83
2022/09/15 01:46:18;;;;;;;5.20;1.33;;;;;;;;;;6301991;22;20019;-82
2022/09/15 01:48:45;;;;;;;8.32;1.42;;;;;;;;;;6302274;22;20019;-81
2022/09/15 01:51:11;;;;;;;6.57;1.40;;;;;;;;;;6274512;22;20011;-83
2022/09/15 01:53:37;;;;;;;8.52;1.38;;;;;;;;;;6301942;22;20019;-85
2022/09/15 01:56:10;;;;;;;10.68;1.80;;;;;;;;;;6273184;22;20024;-82
2022/09/15 01:58:37;;;;;;;11.98;1.20;;;;;;;;;;6301113;22;20049;-82
2022/09/15 02:01:10;;;;;;;8.30;1.20;;;;;;;;;;6301758;22;20025;-81
2022/09/15 02:03:46;;;;;;;9.48;1.75;;;;;;;;;;6304018;22;20098;-81
2022/09/15 02:06:20;;;;;;;9.98;1.30;;;;;;;;;;6299345;22;20026;-80
2022/09/15 02:08:51;;;;;;;6.03;1.48;;;;;;;;;;6302284;22;20015;-82
2022/09/15 02:11:29;;;;;;;6.50;1.27;;;;;;;;;;6297848;22;20019;-80
2022/09/15 02:14:12;;;;;;;5.07;1.25;;;;;;;;;;6301741;22;20041;-81
2022/09/15 02:16:46;;;;;;;9.05;1.27;;;;;;;;;;6297768;22;20065;-80
2022/09/15 02:19:18;;;;;;;10.43;2.20;;;;;;;;;;6300916;22;20019;-81
2022/09/15 02:21:48;;;;;;;11.93;1.67;;;;;;;;;;6300431;22;20023;-82
2022/09/15 02:24:17;;;;;;;7.30;1.90;;;;;;;;;;6298406;22;20017;-83
2022/09/15 02:26:50;;;;;;;7.55;1.58;;;;;;;;;;6302307;22;20360;-81
2022/09/15 02:29:20;;;;;;;5.30;1.00;;;;;;;;;;6297552;22;20102;-81
2022/09/15 02:31:47;;;;;;;8.00;1.88;;;;;;;;;;6300641;22;20460;-81
2022/09/15 02:34:19;;;;;;;8.80;1.58;;;;;;;;;;6300640;22;20015;-81
2022/09/15 02:36:45;;;;;;;6.47;1.30;;;;;;;;;;6301922;22;20080;-81
2022/09/15 02:39:13;;;;;;;10.65;1.50;;;;;;;;;;6300069;22;20386;-82
2022/09/15 02:41:40;;;;;;;7.60;1.30;;;;;;;;;;6302965;22;20103;-80
2022/09/15 02:44:18;;;;;;;8.10;1.05;;;;;;;;;;6299440;22;20061;-82
2022/09/15 02:46:44;;;;;;;12.95;1.98;;;;;;;;;;6273358;22;20034;-82
2022/09/15 02:49:10;;;;;;;11.52;1.45;;;;;;;;;;6301262;22;20329;-83
2022/09/15 02:51:36;;;;;;;10.45;1.30;;;;;;;;;;6300126;22;20019;-82
2022/09/15 02:54:19;;;;;;;8.05;1.30;;;;;;;;;;6276464;22;20023;-79
2022/09/15 02:56:46;;;;;;;10.63;1.50;;;;;;;;;;6305119;22;20037;-84
2022/09/15 02:59:12;;;;;;;13.93;1.50;;;;;;;;;;6276776;22;20350;-82
2022/09/15 03:01:45;;;;;;;12.90;1.75;;;;;;;;;;6306803;22;20092;-82
2022/09/15 03:04:12;;;;;;;6.15;1.50;;;;;;;;;;6333213;22;20022;-83
2022/09/15 03:06:38;;;;;;;10.23;1.90;;;;;;;;;;6334884;22;20064;-84
2022/09/15 03:09:11;;;;;;;11.45;1.90;;;;;;;;;;6278259;22;20348;-80
2022/09/15 03:11:37;;;;;;;7.82;1.48;;;;;;;;;;6333558;22;20026;-83
2022/09/15 03:14:04;;;;;;;13.15;1.67;;;;;;;;;;6332993;22;20029;-82
2022/09/15 03:16:37;;;;;;;8.57;1.60;;;;;;;;;;6305671;22;20022;-84
2022/09/15 03:19:03;;;;;;;10.82;1.15;;;;;;;;;;6331969;22;20053;-83
2022/09/15 03:21:30;;;;;;;14.48;1.67;;;;;;;;;;6334682;22;20018;-81
2022/09/15 03:23:57;;;;;;;7.93;1.98;;;;;;;;;;6332824;22;20026;-81
2022/09/15 03:26:23;;;;;;;9.40;1.55;;;;;;;;;;6307479;22;20059;-81
2022/09/15 03:28:52;;;;;;;8.00;1.00;;;;;;;;;;6335759;22;20332;-81
2022/09/15 03:31:24;;;;;;;16.23;1.70;;;;;;;;;;6331226;22;20030;-81
2022/09/15 03:33:53;;;;;;;9.18;1.52;;;;;;;;;;6335009;22;20048;-82
2022/09/15 03:36:25;;;;;;;5.50;1.38;;;;;;;;;;6332627;22;20018;-82
2022/09/15 03:38:51;;;;;;;7.35;1.45;;;;;;;;;;6335486;22;20029;-84
2022/09/15 03:41:32;;;;;;;15.65;2.67;;;;;;;;;;6334464;22;20015;-81
2022/09/15 03:43:59;;;;;;;8.02;1.30;;;;;;;;;;6341474;22;20029;-82
2022/09/15 03:46:25;;;;;;;9.85;1.85;;;;;;;;;;6277612;22;20435;-80
2022/09/15 03:48:57;;;;;;;7.05;1.23;;;;;;;;;;6334015;22;20046;-83
2022/09/15 03:51:24;;;;;;;16.65;2.08;;;;;;;;;;6302137;22;20111;-82
2022/09/15 03:53:50;;;;;;;12.75;1.85;;;;;;;;;;6332462;22;20022;-81
2022/09/15 03:56:19;;;;;;;14.38;2.80;;;;;;;;;;6297180;22;20011;-80
2022/09/15 03:58:45;;;;;;;10.98;2.03;;;;;;;;;;6300578;22;20038;-83
2022/09/15 04:01:11;;;;;;;9.25;2.03;;;;;;;;;;6301069;22;20022;-82
2022/09/15 04:03:39;;;;;;;10.95;2.13;;;;;;;;;;6296997;22;20052;-81
2022/09/15 04:06:05;;;;;;;8.60;1.95;;;;;;;;;;6300707;22;20019;-80
2022/09/15 04:08:31;;;;;;;12.02;1.75;;;;;;;;;;6297465;22;20019;-82
2022/09/15 04:11:01;;;;;;;11.82;2.55;;;;;;;;;;6274412;22;20403;-80
2022/09/15 04:13:28;;;;;;;8.75;1.63;;;;;;;;;;6298837;22;20391;-80
2022/09/15 04:16:01;;;;;;;7.68;1.38;;;;;;;;;;6299223;22;20102;-80
2022/09/15 04:18:28;;;;;;;8.95;1.45;;;;;;;;;;6298987;22;20534;-81
2022/09/15 04:20:57;;;;;;;9.30;1.23;;;;;;;;;;6299237;22;20030;-83
2022/09/15 04:23:24;;;;;;;5.75;1.38;;;;;;;;;;6301216;22;20317;-80
2022/09/15 04:25:56;;;;;;;7.03;1.20;;;;;;;;;;6297064;22;20027;-83
2022/09/15 04:28:23;;;;;;;9.63;0.93;;;;;;;;;;6299557;22;20031;-81
2022/09/15 04:30:49;;;;;;;5.05;0.88;;;;;;;;;;6298030;22;20091;-81
2022/09/15 04:33:15;;;;;;;2.92;0.60;;;;;;;;;;6274833;22;20019;-79
2022/09/15 04:35:41;;;;;;;8.60;0.68;;;;;;;;;;6299908;22;20460;-80
2022/09/15 04:38:19;;;;;;;5.53;0.95;;;;;;;;;;6301983;22;20019;-82
2022/09/15 04:40:45;;;;;;;4.38;0.75;;;;;;;;;;6298352;22;20022;-81
2022/09/15 04:43:11;;;;;;;5.40;1.23;;;;;;;;;;6297783;22;20505;-80
2022/09/15 04:45:38;;;;;;;6.72;1.45;;;;;;;;;;6274639;22;20011;-80
2022/09/15 04:48:04;;;;;;;7.13;0.60;;;;;;;;;;6244217;22;20047;-81
2022/09/15 04:50:31;;;;;;;5.00;0.90;;;;;;;;;;6301529;22;20034;-81
2022/09/15 04:52:57;;;;;;;5.57;1.00;;;;;;;;;;6296728;22;20102;-81
2022/09/15 04:55:26;;;;;;;3.20;1.00;;;;;;;;;;6274334;22;20019;-81
2022/09/15 04:57:55;;;;;;;4.57;0.88;;;;;;;;;;6251044;22;20033;-83
2022/09/15 05:00:21;;;;;;;5.13;0.75;;;;;;;;;;6302620;22;20027;-82
2022/09/15 05:02:47;;;;;;;4.68;0.75;;;;;;;;;;6303874;22;20363;-82
2022/09/15 05:05:17;;;;;;;4.95;1.45;;;;;;;;;;6303261;22;20046;-83
2022/09/15 05:07:44;;;;;;;9.18;1.40;;;;;;;;;;6303351;22;20023;-81
2022/09/15 05:10:10;;;;;;;9.85;1.65;;;;;;;;;;6301023;22;20100;-80
2022/09/15 05:12:36;;;;;;;14.35;1.35;;;;;;;;;;6307296;22;20094;-80
2022/09/15 05:15:02;;;;;;;5.70;1.00;;;;;;;;;;6298367;22;20019;-82
2022/09/15 05:17:37;;;;;;;10.07;2.53;;;;;;;;;;6304395;22;20012;-82
2022/09/15 05:20:04;;;;;;;8.18;1.70;;;;;;;;;;6300705;22;20022;-82
2022/09/15 05:22:31;;;;;;;5.95;1.20;;;;;;;;;;6277796;22;20649;-84
2022/09/15 05:24:58;;;;;;;12.85;2.00;;;;;;;;;;6273604;22;20474;-84
2022/09/15 05:27:51;;;;;;;10.02;1.83;;;;;;;;;;6304517;22;20015;-84
2022/09/15 05:30:17;;;;;;;9.52;1.83;;;;;;;;;;6303501;22;20030;-80
2022/09/15 05:32:43;;;;;;;8.43;1.70;;;;;;;;;;6275707;22;20071;-82
2022/09/15 05:35:09;;;;;;;8.07;1.70;;;;;;;;;;6301675;22;20064;-82
2022/09/15 05:37:35;;;;;;;12.02;1.58;;;;;;;;;;6300390;22;20015;-81
2022/09/15 05:40:02;;;;;;;12.20;1.42;;;;;;;;;;6302782;22;20506;-85
2022/09/15 05:42:30;;;;;;;10.32;2.00;;;;;;;;;;6272149;22;20022;-82
2022/09/15 05:44:56;;;;;;;12.40;2.05;;;;;;;;;;6300199;22;20015;-81
2022/09/15 05:47:23;;;;;;;8.57;1.77;;;;;;;;;;6301173;22;20019;-83
2022/09/15 05:50:01;;;;;;;9.98;1.60;;;;;;;;;;6301377;22;20461;-81
2022/09/15 05:52:27;;;;;;;25.83;2.30;;;;;;;;;;6302962;22;20038;-81
2022/09/15 05:55:06;;;;;;;7.53;1.52;;;;;;;;;;6300263;22;20111;-83
2022/09/15 05:57:32;;;;;;;8.07;1.20;;;;;;;;;;6289302;22;20525;-81
2022/09/15 05:59:58;;;;;;;6.63;1.40;;;;;;;;;;6331519;22;20027;-85
2022/09/15 06:02:24;;;;;;;13.57;1.65;;;;;;;;;;6306593;22;20095;-81
2022/09/15 06:04:57;;;;;;;12.57;1.65;;;;;;;;;;6282146;22;20343;-84
2022/09/15 06:07:23;;;;;;;6.10;1.20;;;;;;;;;;6306511;22;20260;-82
2022/09/15 06:09:57;;;;;;;9.38;1.40;;;;;;;;;;6307961;22;20093;-84
2022/09/15 06:12:23;;;;;;;15.73;1.75;;;;;;;;;;6307353;22;20367;-83
2022/09/15 06:15:16;;;;;;;7.22;1.63;;;;;;;;;;6311623;22;20036;-87
2022/09/15 06:17:43;;;;;;;7.55;1.40;;;;;;;;;;6335494;22;20019;-86
2022/09/15 06:20:34;;;;;;;9.15;1.58;;;;;;;;;;6340936;22;20022;-84
2022/09/15 06:23:00;;;;;;;25.65;1.90;;;;;;;;;;6287140;22;20435;-83
2022/09/15 06:25:26;;;;;;;8.15;1.35;;;;;;;;;;6263270;22;20477;-83
2022/09/15 06:27:53;;;;;;;11.18;1.38;;;;;;;;;;6342541;22;20015;-85
2022/09/15 06:33:41;;;;;;;;;;;;;;;;;;;;;
2022/09/15 06:36:21;;;;;;;8.02;1.48;;;;;;;;;;6094584;23;20053;-80
2022/09/15 06:38:47;;;;;;;8.52;1.40;;;;;;;;;;6118267;23;20131;-80
2022/09/15 06:41:14;;;;;;;9.85;1.60;;;;;;;;;;6117122;23;20026;-79
2022/09/15 06:43:40;;;;;;;7.63;1.30;;;;;;;;;;6191347;23;20042;-80
2022/09/15 06:46:08;;;;;;;6.30;1.13;;;;;;;;;;6211665;23;20023;-80
2022/09/15 06:48:34;;;;;;;10.48;1.45;;;;;;;;;;6208556;23;20347;-79
2022/09/15 06:51:14;;;;;;;8.63;1.50;;;;;;;;;;6209816;23;20023;-80
2022/09/15 06:53:40;;;;;;;5.90;1.42;;;;;;;;;;6206914;23;20095;-80
2022/09/15 06:56:07;;;;;;;8.40;1.10;;;;;;;;;;6210282;23;20380;-80
2022/09/15 06:58:34;;;;;;;11.38;1.88;;;;;;;;;;6231860;23;20453;-80
2022/09/15 07:01:04;;;;;;;9.82;2.00;;;;;;;;;;6209511;23;20020;-82
2022/09/15 07:03:30;;;;;;;11.95;2.33;;;;;;;;;;6272611;22;20018;-81
2022/09/15 07:05:57;;;;;;;8.40;1.40;;;;;;;;;;6302007;22;20317;-81
2022/09/15 07:08:23;;;;;;;11.60;1.92;;;;;;;;;;6303847;22;20037;-81
2022/09/15 07:10:49;;;;;;;13.27;1.70;;;;;;;;;;6329441;22;20029;-80
2022/09/15 07:13:15;;;;;;;10.73;1.40;;;;;;;;;;6277817;22;20104;-80
2022/09/15 07:15:42;;;;;;;11.18;2.97;;;;;;;;;;6301181;22;20018;-80
2022/09/15 07:18:08;;;;;;;10.50;1.67;;;;;;;;;;6277320;22;20015;-81
2022/09/15 07:20:37;;;;;;;19.48;2.60;;;;;;;;;;6274985;22;20015;-80
2022/09/15 07:23:04;;;;;;;10.85;1.55;;;;;;;;;;6330288;22;20120;-81
2022/09/15 07:25:30;;;;;;;15.85;1.70;;;;;;;;;;6277752;22;20019;-81
2022/09/15 07:27:56;;;;;;;11.27;1.95;;;;;;;;;;6300902;22;20027;-81
2022/09/15 07:30:22;;;;;;;9.65;1.48;;;;;;;;;;6330660;22;20022;-80
2022/09/15 07:32:48;;;;;;;11.52;1.80;;;;;;;;;;6328591;22;20037;-80
2022/09/15 07:35:17;;;;;;;16.00;1.85;;;;;;;;;;6278779;22;20021;-81
2022/09/15 07:37:43;;;;;;;8.57;1.58;;;;;;;;;;6328005;22;20097;-80
2022/09/15 07:40:10;;;;;;;10.38;1.60;;;;;;;;;;6331010;22;20343;-83
2022/09/15 07:42:37;;;;;;;8.52;1.75;;;;;;;;;;6327456;22;20033;-82
2022/09/15 07:45:03;;;;;;;6.88;1.35;;;;;;;;;;6277997;22;20018;-82
2022/09/15 07:47:29;;;;;;;6.28;1.23;;;;;;;;;;6276101;22;20023;-82
2022/09/15 07:50:04;;;;;;;9.45;1.60;;;;;;;;;;6328933;22;20015;-81
2022/09/15 07:52:30;;;;;;;7.18;1.45;;;;;;;;;;6275611;22;20025;-80
2022/09/15 07:58:17;;;;;;;7.68;2.05;;;;;;;;;;6282423;22;20124;-80
2022/09/15 08:00:44;;;;;;;6.78;1.50;;;;;;;;;;6296321;22;20104;-81
2022/09/15 08:03:16;;;;;;;7.35;1.65;;;;;;;;;;6274698;22;20027;-82
2022/09/15 08:05:42;;;;;;;8.65;1.88;;;;;;;;;;6297695;22;20073;-83
2022/09/15 08:08:09;;;;;;;6.28;1.33;;;;;;;;;;6247275;22;20034;-81
2022/09/15 08:10:43;;;;;;;6.07;1.48;;;;;;;;;;6269352;22;20027;-80
2022/09/15 08:13:09;;;;;;;14.73;1.83;;;;;;;;;;6300039;22;20022;-82
2022/09/15 08:15:56;;;;;;;16.20;1.70;;;;;;;;;;6239099;22;20023;-82
2022/09/15 08:18:25;;;;;;;4.85;1.30;;;;;;;;;;6239162;22;20030;-82
2022/09/15 08:23:58;;;;;;;6.13;1.23;;;;;;;;;;6264848;22;20027;-81
2022/09/15 08:26:38;;;;;;;6.55;1.35;;;;;;;;;;6266221;22;20904;-80
2022/09/15 08:29:05;;;;;;;8.45;1.17;;;;;;;;;;6238246;22;20487;-82
2022/09/15 08:31:31;;;;;;;11.23;1.30;;;;;;;;;;6267382;22;20063;-83
2022/09/15 08:34:05;;;;;;;7.38;1.00;;;;;;;;;;6267023;22;20016;-81
2022/09/15 08:36:32;;;;;;;5.63;1.08;;;;;;;;;;6268844;22;20020;-82
2022/09/15 08:39:02;;;;;;;5.70;1.10;;;;;;;;;;6265428;22;20023;-82
2022/09/15 08:41:30;;;;;;;7.45;1.05;;;;;;;;;;6217702;22;20019;-83
2022/09/15 08:44:15;;;;;;;5.18;0.93;;;;;;;;;;6241515;22;20057;-82
2022/09/15 08:47:00;;;;;;;5.32;0.90;;;;;;;;;;6285459;22;20015;-81
2022/09/15 08:49:32;;;;;;;6.55;1.10;;;;;;;;;;6273468;22;20470;-84
2022/09/15 08:52:00;;;;;;;7.43;1.48;;;;;;;;;;6247821;22;20103;-82
2022/09/15 08:54:28;;;;;;;6.53;1.35;;;;;;;;;;6248213;22;20062;-83
2022/09/15 08:57:20;;;;;;;12.35;1.80;;;;;;;;;;6300496;22;20015;-82
2022/09/15 09:00:01;;;;;;;7.78;1.70;;;;;;;;;;6305518;22;20018;-82
2022/09/15 09:02:59;;;;;;;12.00;1.48;;;;;;;;;;6302479;22;20018;-81
2022/09/15 09:05:46;;;;;;;5.57;1.33;;;;;;;;;;6333093;22;20081;-81
2022/09/15 09:08:27;;;;;;;9.00;1.60;;;;;;;;;;6330498;22;20089;-86
2022/09/15 09:10:59;;;;;;;6.40;1.00;;;;;;;;;;6306169;22;20037;-83
2022/09/15 09:13:44;;;;;;;14.23;1.42;;;;;;;;;;6333633;22;20021;-81
2022/09/15 09:16:17;;;;;;;5.72;1.20;;;;;;;;;;6334013;22;20417;-81
2022/09/15 09:18:49;;;;;;;4.33;1.03;;;;;;;;;;6332239;22;20029;-80
2022/09/15 09:21:25;;;;;;;5.05;0.90;;;;;;;;;;6330375;22;20245;-84
2022/09/15 09:24:04;;;;;;;6.22;1.02;;;;;;;;;;6305506;22;20482;-81
2022/09/15 09:26:40;;;;;;;8.88;1.90;;;;;;;;;;6329171;22;20019;-81
2022/09/15 09:29:29;;;;;;;5.78;1.05;;;;;;;;;;6331383;22;20098;-81
2022/09/15 09:35:46;;;;;;;6.18;0.90;;;;;;;;;;6329253;22;20027;-81
2022/09/15 09:38:24;;;;;;;4.43;0.98;;;;;;;;;;6150752;23;20079;-82
2022/09/15 09:40:53;;;;;;;4.97;0.98;;;;;;;;;;6174714;23;20028;-80
2022/09/15 09:43:34;;;;;;;5.03;1.27;;;;;;;;;;6295687;22;20015;-82
2022/09/15 09:46:15;;;;;;;8.45;1.38;;;;;;;;;;6330302;22;20025;-81
2022/09/15 09:48:49;;;;;;;7.85;1.10;;;;;;;;;;6330915;22;20057;-82
2022/09/15 09:51:35;;;;;;;5.82;1.30;;;;;;;;;;6301803;22;20351;-79
2022/09/15 09:54:15;;;;;;;10.27;1.30;;;;;;;;;;6275647;22;20041;-81
2022/09/15 09:56:50;;;;;;;8.77;1.10;;;;;;;;;;6287155;22;20484;-81
2022/09/15 10:02:42;;;;;;;7.63;1.20;;;;;;;;;;6301398;22;20027;-83
2022/09/15 10:05:18;;;;;;;4.28;1.13;;;;;;;;;;6299624;22;20015;-83
2022/09/15 10:07:47;;;;;;;6.18;1.20;;;;;;;;;;6273868;22;20324;-82
2022/09/15 10:10:45;;;;;;;6.95;1.60;;;;;;;;;;6299211;22;20022;-82
2022/09/15 10:16:22;;;;;;;4.82;1.10;;;;;;;;;;6307145;22;20080;-84
2022/09/15 10:19:02;;;;;;;8.00;1.33;;;;;;;;;;6252660;22;20434;-85
2022/09/15 10:24:52;;;;;;;11.00;1.40;;;;;;;;;;6334533;22;20425;-86
2022/09/15 10:27:29;;;;;;;5.53;1.13;;;;;;;;;;6279974;22;20153;-86
2022/09/15 10:49:49;;;;;;;;;;;;;;;;;;6275304;22;20095;-85
2022/09/15 10:52:34;;;;;;;7.80;1.00;;;;;;;;;;6247994;22;20281;-86
2022/09/15 10:55:19;;;;;;;14.73;1.50;;;;;;;;;;6246286;22;20016;-84
2022/09/15 11:04:52;;;;;;;8.43;1.10;;;;;;;;;;6337666;22;20025;-86
2022/09/15 11:07:41;;;;;;;3.53;1.10;;;;;;;;;;6284615;22;20074;-86
2022/09/15 11:12:43;;;;;;;6.35;1.10;;;;;;;;;;6339281;22;20523;-86
2022/09/15 11:18:45;;;;;;;17.05;1.92;;;;;;;;;;6312092;22;20019;-86
2022/09/15 11:21:42;;;;;;;16.00;2.13;;;;;;;;;;6312600;22;20049;-84
2022/09/15 11:27:50;;;;;;;6.00;1.92;;;;;;;;;;6370869;22;20223;-84
2022/09/15 11:33:55;;;;;;;22.73;2.60;;;;;;;;;;6338388;22;20026;-86
2022/09/15 11:39:49;;;;;;;18.13;2.25;;;;;;;;;;6365626;22;20129;-85
2022/09/15 11:42:24;;;;;;;26.50;2.65;;;;;;;;;;6312600;22;20332;-85
2022/09/15 11:44:56;;;;;;;8.85;1.75;;;;;;;;;;6312475;22;20057;-85
2022/09/15 11:47:30;;;;;;;12.35;1.85;;;;;;;;;;6368136;22;20037;-86
2022/09/15 11:53:54;;;;;;;8.77;1.45;;;;;;;;;;6329444;22;20045;-85
2022/09/15 11:56:45;;;;;;;12.02;2.17;;;;;;;;;;6367213;22;20651;-86
2022/09/15 11:59:48;;;;;;;6.38;1.50;;;;;;;;;;6371694;22;20038;-85
2022/09/15 12:05:50;;;;;;;6.28;1.55;;;;;;;;;;6355728;22;20045;-86
2022/09/15 12:08:20;;;;;;;7.35;1.70;;;;;;;;;;6306701;22;20023;-86
2022/09/15 12:14:40;;;;;;;15.77;3.70;;;14.40;99.90;;;;;;6348028;22;20108;-88
2022/09/15 12:17:13;;;;;;;23.48;2.17;;;;;;;;;;6295188;22;20019;-87
2022/09/15 12:19:58;;;;;;;12.80;2.22;;;;;;;;;;6289994;22;20101;-88
2022/09/15 12:22:55;;;;;;;15.32;2.35;;;;;;;;;;6314866;22;20018;-86
2022/09/15 12:28:45;;;;;;;9.10;2.25;;;15.40;99.90;;;;;;6310989;22;20019;-86
2022/09/15 12:31:58;;;;;;;;;;;;;;;;;;;;;
2022/09/15 12:34:49;;;;;;;15.20;2.40;;;;;;;;;;6306855;22;20034;-87
2022/09/15 12:37:43;;;;;;;10.80;2.00;;;;;;;;;;6309273;22;20014;-87
2022/09/15 12:40:28;;;;;;;13.02;2.22;;;;;;;;;;6333136;22;20484;-87
2022/09/15 12:42:54;;;;;;;12.80;2.03;;;;;;;;;;6282367;22;20335;-86
2022/09/15 12:45:32;;;;;;;16.50;2.17;;;;;;;;;;6283621;22;20019;-88
2022/09/15 12:48:15;;;;;;;10.55;1.65;;;;;;;;;;6331854;22;20018;-87
2022/09/15 12:50:42;;;;;;;10.93;2.58;;;;;;;;;;6310261;22;20023;-87
2022/09/15 12:59:49;;;;;;;8.90;1.30;;;;;;;;;;6337854;22;20029;-87
2022/09/15 13:05:46;;;;;;;10.07;1.33;;;;;;;;;;6307185;22;20019;-86
2022/09/15 13:08:43;;;;;;;10.13;1.80;;;;;;;;;;6306601;22;20142;-86
2022/09/15 13:11:27;;;;;;;5.60;1.30;;;;;;;;;;6338020;22;20019;-87
2022/09/15 13:13:53;;;;;;;;;;;;;;;;;;6307359;22;20023;-87
2022/09/15 13:19:51;;;;;;;6.82;1.45;;;;;;;;;;6336885;22;20025;-86
2022/09/15 13:25:35;;;;;;;2.40;0.63;;;;;;;;;;6308086;22;20499;-87
2022/09/15 13:28:17;;;;;;;4.22;1.40;;;;;;;;;;6338749;22;20061;-86
2022/09/15 13:31:05;;;;;;;5.30;1.38;;;;;;;;;;6256863;22;20022;-86
2022/09/15 13:36:56;;;;;;;10.93;1.20;;;;;;;;;;6335026;22;20027;-86
2022/09/15 13:43:04;;;;;;;4.97;1.17;;;;;;;;;;6336571;22;20127;-85
2022/09/15 13:45:46;;;;;;;10.35;1.75;;;;;;;;;;6336735;22;20404;-86
2022/09/15 13:51:57;;;;;;;6.18;1.20;;;;;;;;;;6339552;22;20152;-89
2022/09/15 13:54:38;;;;;;;21.10;1.70;;;;;;;;;;6281003;22;20445;-87
2022/09/15 13:57:04;;;;;;;4.13;1.30;;;;;;;;;;6279835;22;20061;-87
2022/09/15 13:59:43;;;;;;;6.32;1.10;;;;;;;;;;6230217;22;20026;-86
2022/09/15 14:05:15;;;;;;;7.35;1.33;;;;;;;;;;6338948;22;20082;-87
2022/09/15 14:08:10;;;;;;;7.10;1.33;;;;;;;;;;6308991;22;20075;-83
2022/09/15 14:11:13;;;;;;;7.28;1.50;;;;;;;;;;6284629;22;20204;-86
2022/09/15 14:16:51;;;;;;;7.60;1.70;;;;;;;;;;6338243;22;20034;-86
2022/09/15 14:19:59;;;;;;;6.32;1.48;;;;;;;;;;6282025;22;20080;-86
2022/09/15 14:22:30;;;;;;;9.32;2.25;;;;;;;;;;6333612;22;20022;-86
2022/09/15 14:25:22;;;;;;;10.40;1.42;;;;;;;;;;6283717;22;20030;-86
2022/09/15 14:27:50;;;;;;;4.97;1.13;;;;;;;;;;6332969;22;20423;-87
2022/09/15 14:31:08;;;;;;;6.38;1.45;;;;;;;;;;6314860;22;20019;-86
2022/09/15 14:36:46;;;;;;;6.20;1.83;;;;;;;;;;6341003;22;20023;-87
2022/09/15 14:39:20;;;;;;;7.82;1.55;;;;;;;;;;6310663;22;20027;-87
2022/09/15 14:51:41;;;;;;;7.38;1.52;;;;;;;;;;6341173;22;20037;-87
2022/09/15 14:54:26;;;;;;;4.60;1.25;;;;;;;;;;6313291;22;20027;-87
2022/09/15 14:56:53;;;;;;;10.77;1.60;;;;;;;;;;6308988;22;20090;-86
2022/09/15 14:59:56;;;;;;;7.43;1.67;;;;;;;;;;6335452;22;20457;-86
2022/09/15 15:06:21;;;;;;;7.78;1.70;;;;;;;;;;6339086;22;20022;-87
2022/09/15 15:18:39;;;;;;;6.25;1.10;;;;;;;;;;6344251;22;20041;-86
2022/09/15 15:21:26;;;;;;;7.88;1.50;;;;;;;;;;6279862;22;20025;-85
2022/09/15 15:23:53;;;;;;;13.48;1.83;;;;;;;;;;6335104;22;20010;-84
2022/09/15 15:26:36;;;;;;;6.38;1.38;;;;;;;;;;6332668;22;20359;-85
2022/09/15 15:29:07;;;;;;;12.45;1.77;;;;;;;;;;6305702;22;20358;-84
2022/09/15 15:31:45;;;;;;;8.23;1.60;;;;;;;;;;6332817;22;20030;-85
2022/09/15 15:34:22;;;;;;;12.02;2.10;;;;;;;;;;6334589;22;20030;-83
2022/09/15 15:36:48;;;;;;;6.15;1.15;;;;;;;;;;6335417;22;20030;-84
2022/09/15 15:39:26;;;;;;;14.43;1.58;;;;;;;;;;6337256;22;20023;-85
2022/09/15 15:42:00;;;;;;;12.15;1.10;;;;;;;;;;6339044;22;20097;-90
2022/09/15 15:44:32;;;;;;;12.07;1.88;;;;;;;;;;6343421;22;20026;-87
2022/09/15 15:47:03;;;;;;;13.23;1.73;;;;;;;;;;6308977;22;20011;-88
2022/09/15 15:49:31;;;;;;;10.90;1.77;;;;;;;;;;6307798;22;20022;-90
2022/09/15 15:55:41;;;;;;;8.48;1.10;;;;;;;;;;6302109;22;20023;-88
2022/09/15 16:01:35;;;;;;;13.73;1.80;;;;;;;;;;6337387;22;20022;-90
2022/09/15 16:04:01;;;;;;;7.00;1.20;;;;;;;;;;6335911;22;20018;-82
2022/09/15 16:09:53;;;;;;;9.50;1.10;;;;;;;;;;6335282;22;20037;-89
2022/09/15 16:12:25;;;;;;;8.38;1.23;;;;;;;;;;6334389;22;20015;-86
2022/09/15 16:15:16;;;;;;;8.85;1.20;;;;;;;;;;6276757;22;20448;-88
2022/09/15 16:21:35;;;;;;;8.15;1.25;;;;;;;;;;6156077;23;20021;-89
2022/09/15 16:24:02;;;;;;;10.77;2.00;;;;;;;;;;6177509;23;20020;-84
2022/09/15 16:26:30;;;;;;;8.65;1.73;;;;;;;;;;6175919;23;20017;-86
2022/09/15 16:28:57;;;;;;;5.78;1.33;;;;;;;;;;6237089;22;20051;-86
2022/09/15 16:31:32;;;;;;;7.28;1.30;;;;;;;;;;6223284;22;20386;-86
2022/09/15 16:34:16;;;;;;;3.97;0.77;;;;;;;;;;6302357;22;20062;-86
2022/09/15 16:36:42;;;;;;;6.18;1.52;;;;;;;;;;6300695;22;20115;-85
2022/09/15 16:39:37;;;;;;;4.70;0.82;;;;;;;;;;6275208;22;20042;-86
2022/09/15 16:52:15;;;;;;;6.05;1.23;;;;;;;;;;6336821;22;20072;-84
2022/09/15 17:14:30;;;;;;;18.75;2.38;;;;;;;;;;6304455;22;20030;-88
2022/09/15 17:19:57;;;;;;;23.38;3.20;;;;;;;;;;6294023;22;20023;-88
2022/09/15 17:22:52;;;;;;;12.35;1.95;;;;;;;;;;6256214;22;20019;-88
2022/09/15 17:25:20;;;;;;;11.90;2.10;;;;;;;;;;6257488;22;20018;-84
2022/09/15 17:28:04;;;;;;;9.68;2.28;;;;;;;;;;6253284;22;20045;-84
2022/09/15 17:33:00;;;;;;;6.75;1.13;;;;;;;;;;6309635;22;20035;-85
2022/09/15 17:35:55;;;;;;;5.57;1.30;;;;;;;;;;6254366;22;20034;-84
2022/09/15 17:41:27;;;;;;;7.60;1.08;;;;;;;;;;6307414;22;20085;-86
2022/09/15 17:49:48;;;;;;;28.42;1.92;;;;;;;;;;6304787;22;20079;-87
2022/09/15 17:52:15;;;;;;;9.32;2.10;;;;;;;;;;6236213;22;20359;-87
2022/09/15 17:57:44;;;;;;;14.32;1.63;;;;;;;;;;6310270;22;20039;-88
2022/09/15 18:03:36;;;;;;;10.13;1.95;;;;;;;;;;6196106;22;20021;-82
2022/09/15 18:06:06;;;;;;;7.82;2.13;;;;;;;;;;6274852;22;20019;-85
2022/09/15 18:08:45;;;;;;;14.60;1.67;;;;;;;;;;6306145;22;20015;-83
2022/09/15 18:11:13;;;;;;;11.43;1.75;;;;;;;;;;6303805;22;20019;-85
2022/09/15 18:13:39;;;;;;;10.85;1.83;;;;;;;;;;6305440;22;20055;-85
2022/09/15 18:16:06;;;;;;;8.82;1.30;;;;;;;;;;6303175;22;20015;-83
2022/09/15 18:18:36;;;;;;;6.90;1.15;;;;;;;;;;6279660;22;20102;-86
2022/09/15 18:21:06;;;;;;;4.80;1.20;;;;;;;;;;6252236;22;20022;-85
2022/09/15 18:26:41;;;;;;;11.03;1.60;;;;;;;;;;6341512;22;20060;-84
2022/09/15 18:48:20;;;;;;;14.50;2.00;;;;;;;;;;6251528;22;20031;-86
2022/09/15 18:54:55;;;;;;;7.65;1.40;;;;;;;;;;6313325;22;20089;-86
2022/09/15 19:01:00;;;;;;;10.85;1.52;;;;;;;;;;6311952;22;20030;-87
2022/09/15 19:03:37;;;;;;;13.80;1.90;;;;;;;;;;6310160;22;20472;-87
2022/09/15 19:06:07;;;;;;;13.27;1.88;;;;;;;;;;6311803;22;20041;-86
2022/09/15 19:08:35;;;;;;;10.43;1.98;;;;;;;;;;6279942;22;20031;-86
2022/09/15 19:13:30;;;;;;;9.35;1.70;;;;;;;;;;6309486;22;20531;-84
2022/09/15 19:16:15;;;;;;;;;;;;;;;;;;;;;